createdAt,value
2023-05-02T00:00:37.318Z,101327.94
2023-05-02T00:05:41.082Z,101332.06
2023-05-02T00:10:43.639Z,101306.28
2023-05-02T00:15:46.654Z,101306.63
2023-05-02T00:20:50.967Z,101312.41
2023-05-02T00:25:53.751Z,101309.84
2023-05-02T00:30:56.613Z,101310.81
2023-05-02T00:35:59.381Z,101307.13
2023-05-02T00:41:02.151Z,101316.59
2023-05-02T00:46:05.144Z,101322.31
2023-05-02T00:51:09.186Z,101322.75
2023-05-02T00:56:12.222Z,101329.44
2023-05-02T01:01:27.009Z,101328.47
2023-05-02T01:06:42.277Z,101338.53
2023-05-02T01:12:05.712Z,101341.88
2023-05-02T01:17:15.382Z,101345.81
2023-05-02T01:22:20.245Z,101352.16
2023-05-02T01:27:41.992Z,101353.19
2023-05-02T01:32:47.605Z,101358.31
2023-05-02T01:37:53.011Z,101364.16
2023-05-02T01:42:58.682Z,101370.00
2023-05-02T01:48:02.404Z,101374.44
2023-05-02T01:53:11.788Z,101369.78
2023-05-02T01:58:17.193Z,101387.31
2023-05-02T02:03:22.132Z,101379.78
2023-05-02T02:08:25.778Z,101391.03
2023-05-02T02:13:34.981Z,101381.84
2023-05-02T02:18:39.656Z,101392.63
2023-05-02T02:23:45.871Z,101396.97
2023-05-02T02:28:48.992Z,101400.59
2023-05-02T02:33:52.084Z,101393.84
2023-05-02T02:39:16.680Z,101397.47
2023-05-02T02:44:25.059Z,101410.56
2023-05-02T02:49:39.253Z,101413.25
2023-05-02T02:54:47.215Z,101425.97
2023-05-02T03:00:00.408Z,101430.97
2023-05-02T03:05:05.938Z,101430.31
2023-05-02T03:10:09.351Z,101438.00
2023-05-02T03:15:16.668Z,101449.34
2023-05-02T03:20:20.221Z,101434.69
2023-05-02T03:25:24.192Z,101447.28
2023-05-02T03:30:27.212Z,101450.19
2023-05-02T03:35:30.428Z,101449.84
2023-05-02T03:40:33.332Z,101455.09
2023-05-02T03:45:36.201Z,101463.31
2023-05-02T03:50:39.257Z,101468.50
2023-05-02T03:55:46.052Z,101451.06
2023-05-02T04:00:56.695Z,101456.94
2023-05-02T04:06:01.646Z,101473.22
2023-05-02T04:11:04.922Z,101480.16
2023-05-02T04:16:09.261Z,101481.69
2023-05-02T04:21:13.800Z,101495.88
2023-05-02T04:26:17.680Z,101488.94
2023-05-02T04:31:28.093Z,101500.34
2023-05-02T04:36:32.371Z,101500.97
2023-05-02T04:41:35.135Z,101504.75
2023-05-02T04:46:41.722Z,101510.34
2023-05-02T04:51:45.452Z,101523.72
2023-05-02T04:56:49.598Z,101531.38
2023-05-02T05:01:52.843Z,101531.69
2023-05-02T05:06:56.121Z,101531.03
2023-05-02T05:12:02.210Z,101521.50
2023-05-02T05:17:07.954Z,101524.00
2023-05-02T05:22:11.721Z,101516.72
2023-05-02T05:27:15.245Z,101511.50
2023-05-02T05:32:21.018Z,101510.78
2023-05-02T05:37:23.841Z,101515.09
2023-05-02T05:42:27.394Z,101513.69
2023-05-02T05:47:35.176Z,101511.59
2023-05-02T05:52:38.342Z,101510.31
2023-05-02T05:57:41.488Z,101507.28
2023-05-02T06:02:45.802Z,101501.19
2023-05-02T06:07:57.969Z,101491.03
2023-05-02T06:13:00.938Z,101506.91
2023-05-02T06:18:09.020Z,101505.75
2023-05-02T06:23:11.880Z,101502.31
2023-05-02T06:28:14.516Z,101505.38
2023-05-02T06:33:17.395Z,101492.56
2023-05-02T06:38:20.898Z,101493.09
2023-05-02T06:43:24.623Z,101493.09
2023-05-02T06:48:27.314Z,101496.75
2023-05-02T06:53:32.427Z,101500.47
2023-05-02T06:58:36.099Z,101498.38
2023-05-02T07:03:38.951Z,101511.66
2023-05-02T07:08:41.740Z,101498.19
2023-05-02T07:13:44.655Z,101499.25
2023-05-02T07:18:47.514Z,101509.22
2023-05-02T07:23:50.248Z,101509.09
2023-05-02T07:28:52.929Z,101515.25
2023-05-02T07:33:55.679Z,101505.72
2023-05-02T07:38:58.505Z,101517.06
2023-05-02T07:44:01.180Z,101508.09
2023-05-02T07:49:11.264Z,101503.66
2023-05-02T07:54:19.988Z,101496.44
2023-05-02T07:59:23.217Z,101496.81
2023-05-02T08:04:26.754Z,101495.22
2023-05-02T08:09:38.894Z,101490.75
2023-05-02T08:14:46.328Z,101485.72
2023-05-02T08:19:48.989Z,101492.41
2023-05-02T08:24:51.768Z,101489.66
2023-05-02T08:29:54.603Z,101492.00
2023-05-02T08:34:57.428Z,101491.22
2023-05-02T08:40:01.473Z,101510.91
2023-05-02T08:45:09.113Z,101514.00
2023-05-02T08:50:12.593Z,101512.38
2023-05-02T08:55:16.084Z,101509.06
2023-05-02T09:00:19.605Z,101512.59
2023-05-02T09:05:25.378Z,101498.81
2023-05-02T09:10:29.560Z,101508.41
2023-05-02T09:15:32.543Z,101495.53
2023-05-02T09:20:40.594Z,101526.97
2023-05-02T09:25:43.407Z,101513.75
2023-05-02T09:30:46.428Z,101517.44
2023-05-02T09:35:54.063Z,101512.75
2023-05-02T09:40:57.231Z,101530.44
2023-05-02T09:46:07.583Z,101535.13
2023-05-02T09:51:18.623Z,101533.75
2023-05-02T09:56:22.558Z,101538.47
2023-05-02T10:01:27.118Z,101534.81
2023-05-02T10:06:31.054Z,101539.81
2023-05-02T10:11:34.969Z,101540.72
2023-05-02T10:16:47.804Z,101541.09
2023-05-02T10:21:51.904Z,101544.28
2023-05-02T10:26:55.982Z,101541.56
2023-05-02T10:32:01.336Z,101548.53
2023-05-02T10:37:04.111Z,101556.56
2023-05-02T10:42:08.085Z,101557.44
2023-05-02T10:47:25.057Z,101557.31
2023-05-02T10:52:29.540Z,101553.88
2023-05-02T10:57:32.228Z,101556.22
2023-05-02T11:02:49.180Z,101560.78
2023-05-02T11:08:22.990Z,101549.06
2023-05-02T11:13:52.059Z,101548.81
2023-05-02T11:19:01.605Z,101538.19
2023-05-02T11:24:44.947Z,101540.94
2023-05-02T11:30:14.052Z,101535.44
2023-05-02T11:35:24.893Z,101550.00
2023-05-02T11:40:28.783Z,101544.59
2023-05-02T11:45:36.744Z,101554.75
2023-05-02T11:50:49.584Z,101558.16
2023-05-02T11:55:58.500Z,101567.56
2023-05-02T12:01:15.210Z,101570.22
2023-05-02T12:06:20.488Z,101569.50
2023-05-02T12:11:24.521Z,101571.03
2023-05-02T12:16:31.602Z,101578.22
2023-05-02T12:21:37.210Z,101583.69
2023-05-02T12:26:40.988Z,101583.13
2023-05-02T12:31:54.077Z,101592.91
2023-05-02T12:36:57.525Z,101584.50
2023-05-02T12:42:00.386Z,101586.03
2023-05-02T12:47:03.531Z,101583.19
2023-05-02T12:52:06.457Z,101597.03
2023-05-02T12:57:09.626Z,101598.34
2023-05-02T13:02:12.711Z,101595.25
2023-05-02T13:07:15.726Z,101602.81
2023-05-02T13:12:18.930Z,101600.56
2023-05-02T13:17:23.467Z,101604.97
2023-05-02T13:22:27.186Z,101601.19
2023-05-02T13:27:29.925Z,101611.25
2023-05-02T13:32:32.672Z,101599.47
2023-05-02T13:37:39.198Z,101600.09
2023-05-02T13:42:43.763Z,101596.06
2023-05-02T13:47:47.009Z,101598.78
2023-05-02T13:52:50.098Z,101606.00
2023-05-02T13:57:53.634Z,101613.84
2023-05-02T14:02:56.887Z,101620.28
2023-05-02T14:07:59.890Z,101620.56
2023-05-02T14:13:02.803Z,101622.66
2023-05-02T14:18:05.585Z,101635.28
2023-05-02T14:23:12.166Z,101635.81
2023-05-02T14:28:17.822Z,101642.38
2023-05-02T14:33:20.381Z,101636.25
2023-05-02T14:38:23.096Z,101649.41
2023-05-02T14:43:27.780Z,101649.09
2023-05-02T14:48:31.386Z,101646.13
2023-05-02T14:53:35.353Z,101655.19
2023-05-02T14:58:38.983Z,101650.28
2023-05-02T15:04:03.594Z,101655.41
2023-05-02T15:09:05.288Z,101661.78
2023-05-02T15:14:08.063Z,101672.91
2023-05-02T15:19:11.954Z,101689.56
2023-05-02T15:24:14.597Z,101698.16
2023-05-02T15:29:19.513Z,101703.22
2023-05-02T15:34:23.648Z,101703.03
2023-05-02T15:39:28.153Z,101707.69
2023-05-02T15:44:31.025Z,101717.72
2023-05-02T15:49:37.283Z,101727.09
2023-05-02T15:54:44.967Z,101719.34
2023-05-02T15:59:54.181Z,101730.38
2023-05-02T16:04:57.478Z,101743.06
2023-05-02T16:10:01.440Z,101752.13
2023-05-02T16:15:09.814Z,101740.94
2023-05-02T16:20:13.144Z,101759.06
2023-05-02T16:25:20.904Z,101780.66
2023-05-02T16:30:23.617Z,101770.88
2023-05-02T16:35:26.936Z,101776.16
2023-05-02T16:40:31.538Z,101766.25
2023-05-02T16:45:38.585Z,101782.19
2023-05-02T16:50:41.559Z,101796.81
2023-05-02T16:55:44.411Z,101794.59
2023-05-02T17:00:48.359Z,101797.91
2023-05-02T17:05:51.297Z,101796.22
2023-05-02T17:10:58.460Z,101793.06
2023-05-02T17:16:01.581Z,101781.84
2023-05-02T17:21:04.562Z,101786.69
2023-05-02T17:26:15.156Z,101781.50
2023-05-02T17:31:18.828Z,101793.19
2023-05-02T17:36:21.839Z,101773.88
2023-05-02T17:41:24.979Z,101792.09
2023-05-02T17:46:27.921Z,101777.75
2023-05-02T17:51:30.738Z,101773.00
2023-05-02T17:56:35.376Z,101786.16
2023-05-02T18:01:38.403Z,101802.56
2023-05-02T18:06:41.148Z,101801.84
2023-05-02T18:11:44.236Z,101785.69
2023-05-02T18:16:49.927Z,101804.66
2023-05-02T18:21:53.364Z,101808.22
2023-05-02T18:26:57.859Z,101813.84
2023-05-02T18:32:00.777Z,101816.38
2023-05-02T18:37:04.491Z,101815.38
2023-05-02T18:42:08.458Z,101806.34
2023-05-02T18:47:11.317Z,101810.56
2023-05-02T18:52:14.405Z,101815.13
2023-05-02T18:57:17.191Z,101815.81
2023-05-02T19:02:19.843Z,101822.41
2023-05-02T19:07:22.762Z,101821.75
2023-05-02T19:12:25.607Z,101834.88
2023-05-02T19:17:28.382Z,101829.69
2023-05-02T19:22:32.526Z,101835.56
2023-05-02T19:27:35.674Z,101840.28
2023-05-02T19:32:38.560Z,101831.56
2023-05-02T19:37:41.712Z,101817.81
2023-05-02T19:42:44.611Z,101833.25
2023-05-02T19:47:47.835Z,101833.09
2023-05-02T19:52:51.100Z,101832.09
2023-05-02T19:57:53.980Z,101844.50
2023-05-02T20:02:57.440Z,101855.59
2023-05-02T20:08:00.347Z,101862.63
2023-05-02T20:13:03.186Z,101849.22
2023-05-02T20:18:06.080Z,101870.03
2023-05-02T20:23:08.920Z,101864.94
2023-05-02T20:28:11.809Z,101874.50
2023-05-02T20:33:16.760Z,101870.13
2023-05-02T20:38:20.781Z,101863.75
2023-05-02T20:43:23.596Z,101871.06
2023-05-02T20:48:26.384Z,101882.81
2023-05-02T20:53:28.831Z,101885.16
2023-05-02T20:58:31.911Z,101876.38
2023-05-02T21:03:36.954Z,101879.88
2023-05-02T21:08:39.607Z,101887.25
2023-05-02T21:13:43.363Z,101893.78
2023-05-02T21:18:47.295Z,101881.00
2023-05-02T21:23:50.115Z,101883.31
2023-05-02T21:28:53.208Z,101882.81
2023-05-02T21:33:55.996Z,101884.44
2023-05-02T21:38:58.657Z,101874.22
2023-05-02T21:44:01.370Z,101883.41
2023-05-02T21:49:04.287Z,101884.91
2023-05-02T21:54:07.758Z,101878.31
2023-05-02T21:59:10.672Z,101890.84
2023-05-02T22:04:13.424Z,101886.03
2023-05-02T22:09:16.015Z,101893.41
2023-05-02T22:14:18.761Z,101901.69
2023-05-02T22:19:21.845Z,101899.41
2023-05-02T22:24:24.747Z,101899.59
2023-05-02T22:29:27.544Z,101899.09
2023-05-02T22:34:30.271Z,101897.63
2023-05-02T22:39:33.217Z,101885.91
2023-05-02T22:44:50.677Z,101891.59
2023-05-02T22:49:59.952Z,101901.13
2023-05-02T22:55:02.859Z,101894.50
2023-05-02T23:00:07.642Z,101909.41
2023-05-02T23:05:10.472Z,101912.22
2023-05-02T23:10:13.255Z,101913.81
2023-05-02T23:15:15.947Z,101909.91
2023-05-02T23:20:20.631Z,101910.22
2023-05-02T23:25:24.537Z,101910.91
2023-05-02T23:30:27.286Z,101910.97
2023-05-02T23:35:32.481Z,101900.84
2023-05-02T23:40:35.406Z,101915.06
2023-05-02T23:45:38.058Z,101914.56
2023-05-02T23:50:40.611Z,101922.34
2023-05-02T23:55:43.455Z,101938.41
